sensor_id;sensor_type;location;lat;lon;timestamp;pressure;altitude;pressure_sealevel;temperature;humidity
250;BME280;109;19.806;-70.704;2023-05-10T00:00:40;101345.59;;;26.26;67.12
250;BME280;109;19.806;-70.704;2023-05-10T00:03:07;101348.81;;;26.32;66.99
250;BME280;109;19.806;-70.704;2023-05-10T00:05:33;101346.28;;;26.29;66.99
250;BME280;109;19.806;-70.704;2023-05-10T00:08:00;101346.75;;;26.20;66.80
250;BME280;109;19.806;-70.704;2023-05-10T00:10:26;101346.34;;;26.28;66.17
250;BME280;109;19.806;-70.704;2023-05-10T00:12:53;101341.09;;;26.43;66.51
250;BME280;109;19.806;-70.704;2023-05-10T00:15:19;101349.59;;;26.34;66.22
250;BME280;109;19.806;-70.704;2023-05-10T00:17:46;101351.09;;;26.23;66.59
250;BME280;109;19.806;-70.704;2023-05-10T00:20:12;101348.72;;;26.16;65.98
250;BME280;109;19.806;-70.704;2023-05-10T00:22:39;101354.56;;;26.07;66.76
250;BME280;109;19.806;-70.704;2023-05-10T00:25:06;101352.91;;;26.22;66.73
250;BME280;109;19.806;-70.704;2023-05-10T00:27:32;101353.38;;;26.30;66.18
250;BME280;109;19.806;-70.704;2023-05-10T00:29:59;101357.59;;;26.36;65.99
250;BME280;109;19.806;-70.704;2023-05-10T00:32:25;101359.81;;;26.45;65.73
250;BME280;109;19.806;-70.704;2023-05-10T00:34:52;101376.50;;;26.52;66.21
250;BME280;109;19.806;-70.704;2023-05-10T00:37:18;101376.78;;;26.45;65.15
250;BME280;109;19.806;-70.704;2023-05-10T00:39:45;101379.44;;;26.28;66.32
250;BME280;109;19.806;-70.704;2023-05-10T00:42:11;101382.22;;;26.27;66.06
250;BME280;109;19.806;-70.704;2023-05-10T00:44:38;101385.13;;;26.22;66.21
250;BME280;109;19.806;-70.704;2023-05-10T00:47:05;101386.31;;;26.34;66.55
250;BME280;109;19.806;-70.704;2023-05-10T00:49:32;101396.31;;;26.30;66.24
250;BME280;109;19.806;-70.704;2023-05-10T00:51:58;101405.25;;;26.31;65.92
250;BME280;109;19.806;-70.704;2023-05-10T00:54:25;101400.69;;;26.33;65.97
250;BME280;109;19.806;-70.704;2023-05-10T00:56:52;101403.13;;;26.37;65.83
250;BME280;109;19.806;-70.704;2023-05-10T00:59:19;101399.53;;;26.38;65.94
250;BME280;109;19.806;-70.704;2023-05-10T01:01:46;101410.66;;;26.48;65.94
250;BME280;109;19.806;-70.704;2023-05-10T01:04:13;101415.09;;;26.49;66.00
250;BME280;109;19.806;-70.704;2023-05-10T01:06:41;101418.97;;;26.61;65.76
250;BME280;109;19.806;-70.704;2023-05-10T01:09:14;101416.81;;;26.67;65.94
250;BME280;109;19.806;-70.704;2023-05-10T01:11:41;101418.63;;;26.67;65.72
250;BME280;109;19.806;-70.704;2023-05-10T01:14:15;101417.75;;;26.66;65.67
250;BME280;109;19.806;-70.704;2023-05-10T01:16:45;101415.56;;;26.57;65.43
250;BME280;109;19.806;-70.704;2023-05-10T01:19:26;101416.84;;;26.50;65.15
250;BME280;109;19.806;-70.704;2023-05-10T01:22:33;101423.94;;;26.51;65.03
250;BME280;109;19.806;-70.704;2023-05-10T01:25:37;101429.31;;;26.51;65.13
250;BME280;109;19.806;-70.704;2023-05-10T01:28:39;101431.66;;;26.57;64.99
250;BME280;109;19.806;-70.704;2023-05-10T01:31:22;101436.44;;;26.33;65.77
250;BME280;109;19.806;-70.704;2023-05-10T01:34:12;101440.72;;;26.37;66.18
250;BME280;109;19.806;-70.704;2023-05-10T01:36:57;101447.84;;;26.38;65.60
250;BME280;109;19.806;-70.704;2023-05-10T01:39:40;101443.94;;;26.27;65.66
250;BME280;109;19.806;-70.704;2023-05-10T01:42:21;101448.22;;;26.12;65.89
250;BME280;109;19.806;-70.704;2023-05-10T01:48:11;101454.38;;;26.14;65.81
250;BME280;109;19.806;-70.704;2023-05-10T01:50:46;101450.84;;;26.13;66.07
250;BME280;109;19.806;-70.704;2023-05-10T01:53:18;101454.66;;;26.27;65.62
250;BME280;109;19.806;-70.704;2023-05-10T01:55:54;101463.41;;;26.30;65.61
250;BME280;109;19.806;-70.704;2023-05-10T01:58:32;101457.97;;;26.32;65.76
250;BME280;109;19.806;-70.704;2023-05-10T02:01:07;101462.28;;;26.17;65.43
250;BME280;109;19.806;-70.704;2023-05-10T02:03:35;101454.38;;;26.14;65.99
250;BME280;109;19.806;-70.704;2023-05-10T02:06:12;101469.97;;;26.25;65.88
250;BME280;109;19.806;-70.704;2023-05-10T02:08:49;101473.19;;;26.31;65.64
250;BME280;109;19.806;-70.704;2023-05-10T02:11:18;101469.44;;;26.35;65.35
250;BME280;109;19.806;-70.704;2023-05-10T02:13:55;101474.06;;;26.32;65.54
250;BME280;109;19.806;-70.704;2023-05-10T02:16:27;101471.19;;;26.36;65.96
250;BME280;109;19.806;-70.704;2023-05-10T02:19:03;101479.16;;;26.38;65.42
250;BME280;109;19.806;-70.704;2023-05-10T02:21:30;101472.41;;;26.29;65.24
250;BME280;109;19.806;-70.704;2023-05-10T02:24:06;101471.09;;;26.38;65.24
250;BME280;109;19.806;-70.704;2023-05-10T02:26:35;101463.78;;;26.41;65.45
250;BME280;109;19.806;-70.704;2023-05-10T02:29:10;101468.38;;;26.39;65.07
250;BME280;109;19.806;-70.704;2023-05-10T02:31:38;101471.91;;;26.40;65.16
250;BME280;109;19.806;-70.704;2023-05-10T02:34:23;101473.88;;;26.36;65.05
250;BME280;109;19.806;-70.704;2023-05-10T02:37:06;101479.00;;;26.41;65.28
250;BME280;109;19.806;-70.704;2023-05-10T02:39:34;101479.75;;;26.44;64.70
250;BME280;109;19.806;-70.704;2023-05-10T02:42:08;101484.53;;;26.38;64.72
250;BME280;109;19.806;-70.704;2023-05-10T02:44:36;101478.66;;;26.30;65.28
250;BME280;109;19.806;-70.704;2023-05-10T02:47:10;101481.25;;;26.31;65.60
250;BME280;109;19.806;-70.704;2023-05-10T02:49:36;101483.63;;;26.39;65.11
250;BME280;109;19.806;-70.704;2023-05-10T02:52:10;101479.50;;;26.30;65.23
250;BME280;109;19.806;-70.704;2023-05-10T02:54:44;101478.44;;;26.15;65.05
250;BME280;109;19.806;-70.704;2023-05-10T02:57:31;101481.66;;;26.05;65.46
250;BME280;109;19.806;-70.704;2023-05-10T03:00:05;101486.94;;;26.06;65.07
250;BME280;109;19.806;-70.704;2023-05-10T03:02:32;101475.56;;;26.01;64.93
250;BME280;109;19.806;-70.704;2023-05-10T03:05:05;101483.41;;;26.06;64.77
250;BME280;109;19.806;-70.704;2023-05-10T03:07:32;101481.44;;;26.09;64.90
250;BME280;109;19.806;-70.704;2023-05-10T03:10:06;101490.88;;;25.99;65.32
250;BME280;109;19.806;-70.704;2023-05-10T03:15:59;101477.75;;;25.93;65.49
250;BME280;109;19.806;-70.704;2023-05-10T03:18:54;101479.34;;;25.97;64.97
250;BME280;109;19.806;-70.704;2023-05-10T03:21:29;101469.56;;;25.96;65.60
250;BME280;109;19.806;-70.704;2023-05-10T03:24:07;101473.31;;;25.92;65.38
250;BME280;109;19.806;-70.704;2023-05-10T03:26:44;101472.16;;;25.98;65.03
250;BME280;109;19.806;-70.704;2023-05-10T03:29:16;101468.69;;;25.96;65.63
250;BME280;109;19.806;-70.704;2023-05-10T03:31:50;101466.75;;;25.99;65.25
250;BME280;109;19.806;-70.704;2023-05-10T03:34:16;101475.00;;;25.95;65.25
250;BME280;109;19.806;-70.704;2023-05-10T03:36:51;101464.25;;;25.95;65.28
250;BME280;109;19.806;-70.704;2023-05-10T03:39:31;101471.50;;;25.93;64.22
250;BME280;109;19.806;-70.704;2023-05-10T03:41:59;101468.53;;;25.99;64.19
250;BME280;109;19.806;-70.704;2023-05-10T03:44:33;101464.94;;;26.00;63.51
250;BME280;109;19.806;-70.704;2023-05-10T03:46:59;101463.00;;;26.02;63.28
250;BME280;109;19.806;-70.704;2023-05-10T03:49:32;101461.06;;;26.05;62.92
250;BME280;109;19.806;-70.704;2023-05-10T03:51:58;101457.50;;;26.05;63.35
250;BME280;109;19.806;-70.704;2023-05-10T03:54:32;101450.72;;;25.98;62.50
250;BME280;109;19.806;-70.704;2023-05-10T03:56:59;101455.63;;;26.07;62.79
250;BME280;109;19.806;-70.704;2023-05-10T03:59:33;101451.28;;;26.04;62.22
250;BME280;109;19.806;-70.704;2023-05-10T04:02:00;101457.09;;;25.95;62.45
250;BME280;109;19.806;-70.704;2023-05-10T04:04:33;101449.69;;;26.00;61.84
250;BME280;109;19.806;-70.704;2023-05-10T04:07:06;101449.47;;;26.05;61.71
250;BME280;109;19.806;-70.704;2023-05-10T04:09:40;101446.16;;;26.00;61.54
250;BME280;109;19.806;-70.704;2023-05-10T04:12:06;101438.81;;;26.03;62.25
250;BME280;109;19.806;-70.704;2023-05-10T04:14:40;101437.06;;;26.02;62.13
250;BME280;109;19.806;-70.704;2023-05-10T04:17:06;101427.28;;;26.01;62.03
250;BME280;109;19.806;-70.704;2023-05-10T04:19:40;101426.50;;;25.99;61.96
250;BME280;109;19.806;-70.704;2023-05-10T04:22:06;101434.56;;;25.99;62.22
250;BME280;109;19.806;-70.704;2023-05-10T04:24:38;101424.75;;;25.98;62.53
250;BME280;109;19.806;-70.704;2023-05-10T04:27:05;101424.50;;;26.03;62.44
250;BME280;109;19.806;-70.704;2023-05-10T04:29:38;101416.41;;;26.04;62.61
250;BME280;109;19.806;-70.704;2023-05-10T04:32:04;101417.34;;;26.03;62.00
250;BME280;109;19.806;-70.704;2023-05-10T04:34:38;101414.50;;;26.06;62.02
250;BME280;109;19.806;-70.704;2023-05-10T04:37:25;101411.09;;;26.03;61.92
250;BME280;109;19.806;-70.704;2023-05-10T04:39:59;101406.59;;;26.03;62.66
250;BME280;109;19.806;-70.704;2023-05-10T04:42:25;101407.34;;;26.07;62.49
250;BME280;109;19.806;-70.704;2023-05-10T04:44:59;101402.84;;;26.07;63.29
250;BME280;109;19.806;-70.704;2023-05-10T04:47:25;101400.16;;;26.07;62.90
250;BME280;109;19.806;-70.704;2023-05-10T04:49:59;101395.31;;;25.97;62.43
250;BME280;109;19.806;-70.704;2023-05-10T04:52:25;101389.03;;;25.98;61.80
250;BME280;109;19.806;-70.704;2023-05-10T04:54:57;101399.97;;;25.93;61.56
250;BME280;109;19.806;-70.704;2023-05-10T04:57:24;101390.91;;;25.96;61.71
250;BME280;109;19.806;-70.704;2023-05-10T04:59:57;101395.31;;;25.97;60.94
250;BME280;109;19.806;-70.704;2023-05-10T05:02:23;101392.50;;;26.00;61.25
250;BME280;109;19.806;-70.704;2023-05-10T05:04:56;101395.00;;;26.03;60.97
250;BME280;109;19.806;-70.704;2023-05-10T05:07:31;101385.00;;;26.06;61.42
250;BME280;109;19.806;-70.704;2023-05-10T05:10:06;101390.38;;;26.06;61.37
250;BME280;109;19.806;-70.704;2023-05-10T05:12:33;101388.50;;;26.08;60.99
250;BME280;109;19.806;-70.704;2023-05-10T05:15:06;101385.81;;;26.08;61.06
250;BME280;109;19.806;-70.704;2023-05-10T05:17:35;101387.63;;;26.08;60.99
250;BME280;109;19.806;-70.704;2023-05-10T05:20:09;101377.03;;;26.05;60.96
250;BME280;109;19.806;-70.704;2023-05-10T05:22:36;101368.19;;;26.03;61.29
250;BME280;109;19.806;-70.704;2023-05-10T05:25:10;101359.25;;;26.02;61.33
250;BME280;109;19.806;-70.704;2023-05-10T05:27:37;101366.56;;;26.00;61.52
250;BME280;109;19.806;-70.704;2023-05-10T05:30:11;101363.94;;;25.99;62.06
250;BME280;109;19.806;-70.704;2023-05-10T05:32:38;101362.28;;;25.96;62.14
250;BME280;109;19.806;-70.704;2023-05-10T05:35:11;101364.53;;;25.87;62.34
250;BME280;109;19.806;-70.704;2023-05-10T05:37:58;101354.00;;;25.82;62.06
250;BME280;109;19.806;-70.704;2023-05-10T05:40:31;101356.91;;;25.77;61.63
250;BME280;109;19.806;-70.704;2023-05-10T05:42:57;101343.56;;;25.76;60.83
250;BME280;109;19.806;-70.704;2023-05-10T05:45:30;101341.53;;;25.81;60.62
250;BME280;109;19.806;-70.704;2023-05-10T05:47:56;101352.19;;;25.83;60.87
250;BME280;109;19.806;-70.704;2023-05-10T05:50:29;101348.72;;;25.80;61.15
250;BME280;109;19.806;-70.704;2023-05-10T05:52:55;101347.97;;;25.77;61.56
250;BME280;109;19.806;-70.704;2023-05-10T05:55:29;101344.88;;;25.67;62.25
250;BME280;109;19.806;-70.704;2023-05-10T05:57:57;101344.00;;;25.67;61.74
250;BME280;109;19.806;-70.704;2023-05-10T06:00:31;101345.91;;;25.65;62.24
250;BME280;109;19.806;-70.704;2023-05-10T06:02:57;101342.41;;;25.63;62.24
250;BME280;109;19.806;-70.704;2023-05-10T06:05:30;101339.09;;;25.58;62.22
250;BME280;109;19.806;-70.704;2023-05-10T06:08:03;101336.56;;;25.55;62.18
250;BME280;109;19.806;-70.704;2023-05-10T06:10:37;101334.19;;;25.49;62.55
250;BME280;109;19.806;-70.704;2023-05-10T06:13:03;101342.06;;;25.52;62.52
250;BME280;109;19.806;-70.704;2023-05-10T06:15:37;101328.72;;;25.50;62.74
250;BME280;109;19.806;-70.704;2023-05-10T06:18:04;101328.84;;;25.49;62.68
250;BME280;109;19.806;-70.704;2023-05-10T06:20:38;101323.19;;;25.36;62.82
250;BME280;109;19.806;-70.704;2023-05-10T06:23:04;101327.50;;;25.38;62.51
250;BME280;109;19.806;-70.704;2023-05-10T06:25:38;101326.88;;;25.33;62.90
250;BME280;109;19.806;-70.704;2023-05-10T06:28:04;101326.81;;;25.35;62.49
250;BME280;109;19.806;-70.704;2023-05-10T06:30:37;101329.81;;;25.27;62.69
250;BME280;109;19.806;-70.704;2023-05-10T06:33:03;101322.84;;;25.23;62.41
250;BME280;109;19.806;-70.704;2023-05-10T06:35:36;101321.28;;;25.19;62.85
250;BME280;109;19.806;-70.704;2023-05-10T06:38:23;101327.56;;;25.18;62.80
250;BME280;109;19.806;-70.704;2023-05-10T06:40:57;101322.13;;;25.20;62.67
250;BME280;109;19.806;-70.704;2023-05-10T06:43:23;101314.72;;;25.25;62.55
250;BME280;109;19.806;-70.704;2023-05-10T06:45:57;101324.56;;;25.24;62.16
250;BME280;109;19.806;-70.704;2023-05-10T06:48:23;101316.78;;;25.20;62.70
250;BME280;109;19.806;-70.704;2023-05-10T06:50:57;101318.00;;;25.13;62.52
250;BME280;109;19.806;-70.704;2023-05-10T06:53:23;101320.75;;;25.11;62.57
250;BME280;109;19.806;-70.704;2023-05-10T06:55:57;101316.47;;;25.07;62.87
250;BME280;109;19.806;-70.704;2023-05-10T06:58:23;101321.84;;;25.07;62.74
250;BME280;109;19.806;-70.704;2023-05-10T07:01:04;101317.63;;;25.01;62.63
250;BME280;109;19.806;-70.704;2023-05-10T07:03:38;101317.75;;;24.98;62.53
250;BME280;109;19.806;-70.704;2023-05-10T07:06:04;101315.94;;;24.99;62.44
250;BME280;109;19.806;-70.704;2023-05-10T07:08:46;101301.69;;;24.98;62.68
250;BME280;109;19.806;-70.704;2023-05-10T07:11:19;101308.94;;;24.96;62.54
250;BME280;109;19.806;-70.704;2023-05-10T07:13:45;101305.22;;;24.99;62.22
250;BME280;109;19.806;-70.704;2023-05-10T07:16:19;101305.16;;;25.00;62.47
250;BME280;109;19.806;-70.704;2023-05-10T07:18:45;101308.78;;;24.99;62.26
250;BME280;109;19.806;-70.704;2023-05-10T07:21:19;101308.34;;;24.90;62.58
250;BME280;109;19.806;-70.704;2023-05-10T07:23:45;101301.63;;;25.00;61.97
250;BME280;109;19.806;-70.704;2023-05-10T07:26:19;101308.09;;;24.96;62.41
250;BME280;109;19.806;-70.704;2023-05-10T07:28:46;101300.91;;;24.96;62.07
250;BME280;109;19.806;-70.704;2023-05-10T07:31:20;101307.22;;;24.95;62.25
250;BME280;109;19.806;-70.704;2023-05-10T07:33:46;101305.66;;;24.90;62.27
250;BME280;109;19.806;-70.704;2023-05-10T07:36:20;101313.91;;;24.85;61.86
250;BME280;109;19.806;-70.704;2023-05-10T07:39:07;101308.72;;;24.82;61.94
250;BME280;109;19.806;-70.704;2023-05-10T07:41:41;101308.16;;;24.74;62.03
250;BME280;109;19.806;-70.704;2023-05-10T07:44:07;101314.25;;;24.78;62.13
250;BME280;109;19.806;-70.704;2023-05-10T07:46:40;101325.09;;;24.74;62.35
250;BME280;109;19.806;-70.704;2023-05-10T07:49:06;101316.47;;;24.68;62.48
250;BME280;109;19.806;-70.704;2023-05-10T07:51:39;101326.41;;;24.64;62.36
250;BME280;109;19.806;-70.704;2023-05-10T07:54:05;101312.47;;;24.58;62.63
250;BME280;109;19.806;-70.704;2023-05-10T07:56:46;101317.81;;;24.58;62.83
250;BME280;109;19.806;-70.704;2023-05-10T07:59:20;101314.16;;;24.59;62.71
250;BME280;109;19.806;-70.704;2023-05-10T08:01:46;101319.38;;;24.62;62.67
250;BME280;109;19.806;-70.704;2023-05-10T08:04:20;101321.13;;;24.63;62.36
250;BME280;109;19.806;-70.704;2023-05-10T08:06:46;101320.19;;;24.64;62.54
250;BME280;109;19.806;-70.704;2023-05-10T08:09:19;101323.22;;;24.56;62.32
250;BME280;109;19.806;-70.704;2023-05-10T08:11:56;101315.19;;;24.56;62.43
250;BME280;109;19.806;-70.704;2023-05-10T08:14:22;101318.88;;;24.54;62.11
250;BME280;109;19.806;-70.704;2023-05-10T08:16:55;101318.75;;;24.57;62.44
250;BME280;109;19.806;-70.704;2023-05-10T08:19:22;101316.94;;;24.57;62.44
250;BME280;109;19.806;-70.704;2023-05-10T08:21:55;101322.81;;;24.65;62.06
250;BME280;109;19.806;-70.704;2023-05-10T08:24:22;101321.41;;;24.57;61.86
250;BME280;109;19.806;-70.704;2023-05-10T08:26:55;101331.19;;;24.58;61.78
250;BME280;109;19.806;-70.704;2023-05-10T08:29:21;101331.91;;;24.61;60.72
250;BME280;109;19.806;-70.704;2023-05-10T08:31:54;101328.56;;;24.56;60.53
250;BME280;109;19.806;-70.704;2023-05-10T08:34:20;101330.38;;;24.56;60.61
250;BME280;109;19.806;-70.704;2023-05-10T08:36:54;101328.63;;;24.55;60.65
250;BME280;109;19.806;-70.704;2023-05-10T08:39:35;101337.84;;;24.48;60.41
250;BME280;109;19.806;-70.704;2023-05-10T08:42:03;101332.72;;;24.43;60.32
250;BME280;109;19.806;-70.704;2023-05-10T08:44:43;101336.97;;;24.47;59.85
250;BME280;109;19.806;-70.704;2023-05-10T08:47:21;101343.09;;;24.51;60.19
250;BME280;109;19.806;-70.704;2023-05-10T08:49:48;101334.94;;;24.54;60.15
250;BME280;109;19.806;-70.704;2023-05-10T08:52:26;101330.91;;;24.44;59.96
250;BME280;109;19.806;-70.704;2023-05-10T08:55:01;101336.28;;;24.44;60.09
250;BME280;109;19.806;-70.704;2023-05-10T08:57:27;101336.28;;;24.44;60.45
250;BME280;109;19.806;-70.704;2023-05-10T09:00:00;101345.81;;;24.49;60.29
250;BME280;109;19.806;-70.704;2023-05-10T09:02:27;101346.81;;;24.47;60.61
250;BME280;109;19.806;-70.704;2023-05-10T09:05:00;101347.50;;;24.52;60.85
250;BME280;109;19.806;-70.704;2023-05-10T09:07:27;101356.47;;;24.51;60.98
250;BME280;109;19.806;-70.704;2023-05-10T09:10:00;101357.69;;;24.44;61.12
250;BME280;109;19.806;-70.704;2023-05-10T09:12:27;101371.84;;;24.46;61.13
250;BME280;109;19.806;-70.704;2023-05-10T09:15:00;101355.88;;;24.44;60.75
250;BME280;109;19.806;-70.704;2023-05-10T09:17:29;101363.75;;;24.47;60.46
250;BME280;109;19.806;-70.704;2023-05-10T09:20:04;101362.63;;;24.53;60.28
250;BME280;109;19.806;-70.704;2023-05-10T09:22:31;101360.25;;;24.45;60.45
250;BME280;109;19.806;-70.704;2023-05-10T09:25:15;101370.56;;;24.34;60.29
250;BME280;109;19.806;-70.704;2023-05-10T09:27:48;101370.50;;;24.35;60.45
250;BME280;109;19.806;-70.704;2023-05-10T09:30:24;101384.81;;;24.34;60.81
250;BME280;109;19.806;-70.704;2023-05-10T09:33:07;101384.00;;;24.32;60.64
250;BME280;109;19.806;-70.704;2023-05-10T09:35:48;101379.72;;;24.28;60.86
250;BME280;109;19.806;-70.704;2023-05-10T09:38:24;101382.69;;;24.21;60.83
250;BME280;109;19.806;-70.704;2023-05-10T09:40:52;101391.41;;;24.26;61.06
250;BME280;109;19.806;-70.704;2023-05-10T09:43:37;101391.34;;;24.27;60.87
250;BME280;109;19.806;-70.704;2023-05-10T09:46:11;101388.81;;;24.24;61.04
250;BME280;109;19.806;-70.704;2023-05-10T09:48:47;101385.06;;;24.28;60.65
250;BME280;109;19.806;-70.704;2023-05-10T09:51:22;101394.16;;;24.24;60.65
250;BME280;109;19.806;-70.704;2023-05-10T09:54:11;101393.84;;;24.32;60.19
250;BME280;109;19.806;-70.704;2023-05-10T09:56:45;101387.81;;;24.27;60.19
250;BME280;109;19.806;-70.704;2023-05-10T09:59:12;101387.00;;;24.25;59.94
250;BME280;109;19.806;-70.704;2023-05-10T10:01:52;101389.28;;;24.34;59.80
250;BME280;109;19.806;-70.704;2023-05-10T10:04:25;101391.28;;;24.29;60.04
250;BME280;109;19.806;-70.704;2023-05-10T10:07:04;101395.16;;;24.22;59.92
250;BME280;109;19.806;-70.704;2023-05-10T10:09:38;101406.72;;;24.22;60.04
250;BME280;109;19.806;-70.704;2023-05-10T10:12:05;101412.00;;;24.24;60.40
250;BME280;109;19.806;-70.704;2023-05-10T10:14:38;101411.06;;;24.25;60.17
250;BME280;109;19.806;-70.704;2023-05-10T10:17:05;101414.69;;;24.24;60.06
250;BME280;109;19.806;-70.704;2023-05-10T10:19:38;101414.03;;;24.19;60.11
250;BME280;109;19.806;-70.704;2023-05-10T10:22:05;101418.97;;;24.28;60.26
250;BME280;109;19.806;-70.704;2023-05-10T10:24:39;101424.38;;;24.26;60.47
250;BME280;109;19.806;-70.704;2023-05-10T10:27:19;101417.19;;;24.28;59.89
250;BME280;109;19.806;-70.704;2023-05-10T10:30:17;101422.25;;;24.34;59.76
250;BME280;109;19.806;-70.704;2023-05-10T10:35:24;101420.69;;;24.51;59.35
250;BME280;109;19.806;-70.704;2023-05-10T10:38:13;101426.44;;;24.62;59.01
250;BME280;109;19.806;-70.704;2023-05-10T10:40:47;101434.47;;;24.62;59.20
250;BME280;109;19.806;-70.704;2023-05-10T10:43:24;101435.16;;;24.67;59.30
250;BME280;109;19.806;-70.704;2023-05-10T10:46:17;101442.13;;;24.71;59.04
250;BME280;109;19.806;-70.704;2023-05-10T10:49:08;101451.47;;;24.83;58.82
250;BME280;109;19.806;-70.704;2023-05-10T10:52:14;101454.00;;;24.86;58.57
250;BME280;109;19.806;-70.704;2023-05-10T10:55:01;101457.44;;;24.89;58.52
250;BME280;109;19.806;-70.704;2023-05-10T10:57:32;101455.75;;;25.07;58.09
250;BME280;109;19.806;-70.704;2023-05-10T11:03:16;101471.41;;;25.36;57.83
250;BME280;109;19.806;-70.704;2023-05-10T11:05:46;101473.69;;;25.45;57.70
250;BME280;109;19.806;-70.704;2023-05-10T11:08:32;101479.22;;;25.61;57.49
250;BME280;109;19.806;-70.704;2023-05-10T11:11:03;101472.50;;;25.71;57.51
250;BME280;109;19.806;-70.704;2023-05-10T11:16:12;101476.84;;;25.74;57.52
250;BME280;109;19.806;-70.704;2023-05-10T11:18:40;101480.09;;;25.80;57.98
250;BME280;109;19.806;-70.704;2023-05-10T11:21:09;101478.13;;;25.86;57.71
250;BME280;109;19.806;-70.704;2023-05-10T11:26:08;101486.56;;;26.14;57.29
250;BME280;109;19.806;-70.704;2023-05-10T11:31:09;101488.50;;;26.29;57.10
250;BME280;109;19.806;-70.704;2023-05-10T11:33:46;101501.72;;;26.34;56.67
250;BME280;109;19.806;-70.704;2023-05-10T11:36:21;101495.25;;;26.38;56.79
250;BME280;109;19.806;-70.704;2023-05-10T11:38:48;101501.31;;;26.60;56.97
250;BME280;109;19.806;-70.704;2023-05-10T11:41:18;101498.09;;;26.71;55.88
250;BME280;109;19.806;-70.704;2023-05-10T11:43:49;101502.97;;;26.99;56.44
250;BME280;109;19.806;-70.704;2023-05-10T11:46:19;101506.41;;;27.18;55.86
250;BME280;109;19.806;-70.704;2023-05-10T11:48:50;101499.94;;;27.39;55.72
250;BME280;109;19.806;-70.704;2023-05-10T11:51:24;101500.47;;;27.46;55.58
250;BME280;109;19.806;-70.704;2023-05-10T11:53:54;101507.00;;;27.58;55.95
250;BME280;109;19.806;-70.704;2023-05-10T11:56:21;101498.47;;;27.67;55.09
250;BME280;109;19.806;-70.704;2023-05-10T11:58:56;101487.97;;;27.78;54.42
250;BME280;109;19.806;-70.704;2023-05-10T12:01:26;101487.38;;;27.88;53.73
250;BME280;109;19.806;-70.704;2023-05-10T12:03:55;101490.44;;;27.98;53.60
250;BME280;109;19.806;-70.704;2023-05-10T12:06:26;101484.91;;;28.17;53.01
250;BME280;109;19.806;-70.704;2023-05-10T12:08:54;101482.31;;;28.31;52.77
250;BME280;109;19.806;-70.704;2023-05-10T12:11:24;101487.22;;;28.39;52.56
250;BME280;109;19.806;-70.704;2023-05-10T12:13:51;101488.88;;;28.57;52.78
250;BME280;109;19.806;-70.704;2023-05-10T12:16:28;101494.69;;;28.65;52.89
250;BME280;109;19.806;-70.704;2023-05-10T12:18:59;101495.88;;;28.75;53.22
250;BME280;109;19.806;-70.704;2023-05-10T12:21:28;101490.25;;;28.64;54.21
250;BME280;109;19.806;-70.704;2023-05-10T12:24:03;101492.09;;;28.48;53.94
250;BME280;109;19.806;-70.704;2023-05-10T12:26:31;101490.88;;;28.53;54.56
250;BME280;109;19.806;-70.704;2023-05-10T12:29:15;101492.22;;;28.46;55.26
250;BME280;109;19.806;-70.704;2023-05-10T12:31:55;101499.56;;;28.27;56.31
250;BME280;109;19.806;-70.704;2023-05-10T12:34:33;101499.66;;;28.25;55.97
250;BME280;109;19.806;-70.704;2023-05-10T12:37:04;101501.94;;;28.33;55.84
250;BME280;109;19.806;-70.704;2023-05-10T12:39:40;101511.81;;;28.17;55.72
250;BME280;109;19.806;-70.704;2023-05-10T12:42:09;101510.63;;;28.07;56.32
250;BME280;109;19.806;-70.704;2023-05-10T12:44:36;101509.63;;;28.23;56.47
250;BME280;109;19.806;-70.704;2023-05-10T12:47:03;101506.63;;;28.30;56.54
250;BME280;109;19.806;-70.704;2023-05-10T12:49:29;101509.63;;;28.23;56.51
250;BME280;109;19.806;-70.704;2023-05-10T12:51:56;101509.13;;;28.48;56.79
250;BME280;109;19.806;-70.704;2023-05-10T12:54:23;101503.47;;;28.53;56.84
250;BME280;109;19.806;-70.704;2023-05-10T12:56:50;101506.63;;;28.30;56.93
250;BME280;109;19.806;-70.704;2023-05-10T12:59:16;101510.75;;;28.35;57.00
250;BME280;109;19.806;-70.704;2023-05-10T13:01:44;101508.75;;;28.39;56.86
250;BME280;109;19.806;-70.704;2023-05-10T13:04:11;101512.25;;;28.41;56.93
250;BME280;109;19.806;-70.704;2023-05-10T13:06:38;101501.81;;;28.35;57.87
250;BME280;109;19.806;-70.704;2023-05-10T13:09:05;101511.22;;;28.43;58.02
250;BME280;109;19.806;-70.704;2023-05-10T13:11:33;101507.03;;;28.53;57.70
250;BME280;109;19.806;-70.704;2023-05-10T13:14:00;101510.84;;;28.65;57.52
250;BME280;109;19.806;-70.704;2023-05-10T13:16:29;101511.72;;;28.66;57.16
250;BME280;109;19.806;-70.704;2023-05-10T13:18:56;101514.31;;;28.67;57.91
250;BME280;109;19.806;-70.704;2023-05-10T13:21:25;101512.66;;;28.65;57.77
250;BME280;109;19.806;-70.704;2023-05-10T13:23:53;101516.09;;;28.52;58.17
250;BME280;109;19.806;-70.704;2023-05-10T13:26:20;101518.03;;;28.80;58.13
250;BME280;109;19.806;-70.704;2023-05-10T13:28:47;101513.91;;;28.89;57.77
250;BME280;109;19.806;-70.704;2023-05-10T13:31:16;101519.94;;;28.78;57.85
250;BME280;109;19.806;-70.704;2023-05-10T13:33:43;101518.28;;;28.76;57.66
250;BME280;109;19.806;-70.704;2023-05-10T13:36:10;101514.19;;;28.84;57.29
250;BME280;109;19.806;-70.704;2023-05-10T13:38:45;101510.25;;;28.90;57.56
250;BME280;109;19.806;-70.704;2023-05-10T13:41:13;101521.72;;;28.93;57.71
250;BME280;109;19.806;-70.704;2023-05-10T13:43:40;101521.41;;;28.84;57.42
250;BME280;109;19.806;-70.704;2023-05-10T13:46:08;101509.69;;;28.85;57.99
250;BME280;109;19.806;-70.704;2023-05-10T13:48:35;101520.41;;;29.01;57.77
250;BME280;109;19.806;-70.704;2023-05-10T13:51:05;101527.97;;;29.10;56.94
250;BME280;109;19.806;-70.704;2023-05-10T13:53:33;101526.31;;;29.07;57.38
250;BME280;109;19.806;-70.704;2023-05-10T13:56:00;101525.06;;;28.99;57.89